sensor_id;sensor_type;location;lat;lon;timestamp;temperature;humidity
34891;DHT22;21103;51.358;12.412;2022-07-09T00:01:38;18.10;98.40
34891;DHT22;21103;51.358;12.412;2022-07-09T00:04:03;18.10;98.40
34891;DHT22;21103;51.358;12.412;2022-07-09T00:06:29;18.10;98.50
34891;DHT22;21103;51.358;12.412;2022-07-09T00:08:55;18.20;98.50
34891;DHT22;21103;51.358;12.412;2022-07-09T00:11:20;18.20;98.50
34891;DHT22;21103;51.358;12.412;2022-07-09T00:13:46;18.20;98.50
34891;DHT22;21103;51.358;12.412;2022-07-09T00:16:11;18.20;98.40
34891;DHT22;21103;51.358;12.412;2022-07-09T00:18:37;18.20;98.40
34891;DHT22;21103;51.358;12.412;2022-07-09T00:21:02;18.20;98.40
34891;DHT22;21103;51.358;12.412;2022-07-09T00:23:28;18.20;98.40
34891;DHT22;21103;51.358;12.412;2022-07-09T00:25:53;18.20;98.30
34891;DHT22;21103;51.358;12.412;2022-07-09T00:28:19;18.20;98.30
34891;DHT22;21103;51.358;12.412;2022-07-09T00:30:44;18.20;98.30
34891;DHT22;21103;51.358;12.412;2022-07-09T00:33:10;18.20;98.30
34891;DHT22;21103;51.358;12.412;2022-07-09T00:35:35;18.20;98.40
34891;DHT22;21103;51.358;12.412;2022-07-09T00:38:01;18.10;98.40
34891;DHT22;21103;51.358;12.412;2022-07-09T00:40:26;18.10;98.50
34891;DHT22;21103;51.358;12.412;2022-07-09T00:42:52;18.10;98.50
34891;DHT22;21103;51.358;12.412;2022-07-09T00:45:17;18.00;98.50
34891;DHT22;21103;51.358;12.412;2022-07-09T00:47:43;18.00;98.50
34891;DHT22;21103;51.358;12.412;2022-07-09T00:50:09;18.00;98.70
34891;DHT22;21103;51.358;12.412;2022-07-09T00:52:35;18.00;98.80
34891;DHT22;21103;51.358;12.412;2022-07-09T00:55:03;17.90;98.80
34891;DHT22;21103;51.358;12.412;2022-07-09T00:57:30;17.90;98.90
34891;DHT22;21103;51.358;12.412;2022-07-09T00:59:57;17.90;99.10
34891;DHT22;21103;51.358;12.412;2022-07-09T01:02:23;17.80;99.30
34891;DHT22;21103;51.358;12.412;2022-07-09T01:04:48;17.80;99.40
34891;DHT22;21103;51.358;12.412;2022-07-09T01:07:14;17.70;99.50
34891;DHT22;21103;51.358;12.412;2022-07-09T01:09:39;17.80;99.50
34891;DHT22;21103;51.358;12.412;2022-07-09T01:12:07;17.80;99.50
34891;DHT22;21103;51.358;12.412;2022-07-09T01:14:32;17.80;99.50
34891;DHT22;21103;51.358;12.412;2022-07-09T01:17:00;17.80;99.50
34891;DHT22;21103;51.358;12.412;2022-07-09T01:19:27;17.80;99.50
34891;DHT22;21103;51.358;12.412;2022-07-09T01:21:54;17.80;99.50
34891;DHT22;21103;51.358;12.412;2022-07-09T01:24:20;17.80;99.50
34891;DHT22;21103;51.358;12.412;2022-07-09T01:26:45;17.80;99.40
34891;DHT22;21103;51.358;12.412;2022-07-09T01:29:11;17.80;99.50
34891;DHT22;21103;51.358;12.412;2022-07-09T01:31:36;17.80;99.50
34891;DHT22;21103;51.358;12.412;2022-07-09T01:34:02;17.70;99.50
34891;DHT22;21103;51.358;12.412;2022-07-09T01:36:28;17.70;99.50
34891;DHT22;21103;51.358;12.412;2022-07-09T01:38:53;17.70;99.60
34891;DHT22;21103;51.358;12.412;2022-07-09T01:41:18;17.70;99.60
34891;DHT22;21103;51.358;12.412;2022-07-09T01:43:44;17.60;99.60
34891;DHT22;21103;51.358;12.412;2022-07-09T01:46:09;17.60;99.60
34891;DHT22;21103;51.358;12.412;2022-07-09T01:48:35;17.70;99.70
34891;DHT22;21103;51.358;12.412;2022-07-09T01:51:01;17.70;99.70
34891;DHT22;21103;51.358;12.412;2022-07-09T01:53:27;17.70;99.80
34891;DHT22;21103;51.358;12.412;2022-07-09T01:55:52;17.70;99.70
34891;DHT22;21103;51.358;12.412;2022-07-09T01:58:18;17.70;99.70
34891;DHT22;21103;51.358;12.412;2022-07-09T02:00:44;17.70;99.70
34891;DHT22;21103;51.358;12.412;2022-07-09T02:03:09;17.70;99.70
34891;DHT22;21103;51.358;12.412;2022-07-09T02:05:35;17.70;99.60
34891;DHT22;21103;51.358;12.412;2022-07-09T02:08:01;17.60;99.70
34891;DHT22;21103;51.358;12.412;2022-07-09T02:10:26;17.60;99.70
34891;DHT22;21103;51.358;12.412;2022-07-09T02:12:52;17.60;99.80
34891;DHT22;21103;51.358;12.412;2022-07-09T02:15:17;17.60;99.80
34891;DHT22;21103;51.358;12.412;2022-07-09T02:17:43;17.60;99.80
34891;DHT22;21103;51.358;12.412;2022-07-09T02:20:09;17.50;99.90
34891;DHT22;21103;51.358;12.412;2022-07-09T02:22:35;17.50;99.90
34891;DHT22;21103;51.358;12.412;2022-07-09T02:25:01;17.50;99.90
34891;DHT22;21103;51.358;12.412;2022-07-09T02:27:26;17.50;99.90
34891;DHT22;21103;51.358;12.412;2022-07-09T02:29:52;17.50;99.90
34891;DHT22;21103;51.358;12.412;2022-07-09T02:32:17;17.50;99.90
34891;DHT22;21103;51.358;12.412;2022-07-09T02:34:43;17.50;99.90
34891;DHT22;21103;51.358;12.412;2022-07-09T02:37:08;17.50;99.90
34891;DHT22;21103;51.358;12.412;2022-07-09T02:39:34;17.50;99.90
34891;DHT22;21103;51.358;12.412;2022-07-09T02:42:00;17.50;99.90
34891;DHT22;21103;51.358;12.412;2022-07-09T02:44:25;17.50;99.90
34891;DHT22;21103;51.358;12.412;2022-07-09T02:46:51;17.50;99.90
34891;DHT22;21103;51.358;12.412;2022-07-09T02:49:16;17.50;99.90
34891;DHT22;21103;51.358;12.412;2022-07-09T02:51:42;17.50;99.90
34891;DHT22;21103;51.358;12.412;2022-07-09T02:54:07;17.40;99.90
34891;DHT22;21103;51.358;12.412;2022-07-09T02:56:33;17.40;99.90
34891;DHT22;21103;51.358;12.412;2022-07-09T02:58:59;17.40;99.90
34891;DHT22;21103;51.358;12.412;2022-07-09T03:01:24;17.40;99.90
34891;DHT22;21103;51.358;12.412;2022-07-09T03:03:50;17.30;99.90
34891;DHT22;21103;51.358;12.412;2022-07-09T03:06:15;17.30;99.90
34891;DHT22;21103;51.358;12.412;2022-07-09T03:08:41;17.30;99.90
34891;DHT22;21103;51.358;12.412;2022-07-09T03:11:07;17.20;99.90
34891;DHT22;21103;51.358;12.412;2022-07-09T03:13:35;17.20;99.90
34891;DHT22;21103;51.358;12.412;2022-07-09T03:16:02;17.20;99.90
34891;DHT22;21103;51.358;12.412;2022-07-09T03:18:28;17.20;99.90
34891;DHT22;21103;51.358;12.412;2022-07-09T03:20:53;17.10;99.90
34891;DHT22;21103;51.358;12.412;2022-07-09T03:23:19;17.10;99.90
34891;DHT22;21103;51.358;12.412;2022-07-09T03:25:44;17.10;99.90
34891;DHT22;21103;51.358;12.412;2022-07-09T03:28:10;17.10;99.90
34891;DHT22;21103;51.358;12.412;2022-07-09T03:30:36;17.10;99.90
34891;DHT22;21103;51.358;12.412;2022-07-09T03:33:01;17.10;99.90
34891;DHT22;21103;51.358;12.412;2022-07-09T03:35:27;17.10;99.90
34891;DHT22;21103;51.358;12.412;2022-07-09T03:37:52;17.20;99.90
34891;DHT22;21103;51.358;12.412;2022-07-09T03:40:18;17.20;99.90
34891;DHT22;21103;51.358;12.412;2022-07-09T03:42:43;17.20;99.90
34891;DHT22;21103;51.358;12.412;2022-07-09T03:45:10;17.30;99.90
34891;DHT22;21103;51.358;12.412;2022-07-09T03:47:35;17.30;99.90
34891;DHT22;21103;51.358;12.412;2022-07-09T03:50:01;17.30;99.90
34891;DHT22;21103;51.358;12.412;2022-07-09T03:52:26;17.30;99.90
34891;DHT22;21103;51.358;12.412;2022-07-09T03:54:52;17.40;99.90
34891;DHT22;21103;51.358;12.412;2022-07-09T03:57:18;17.40;99.90
34891;DHT22;21103;51.358;12.412;2022-07-09T03:59:43;17.30;99.90
34891;DHT22;21103;51.358;12.412;2022-07-09T04:02:09;17.40;99.90
34891;DHT22;21103;51.358;12.412;2022-07-09T04:04:34;17.40;99.90
34891;DHT22;21103;51.358;12.412;2022-07-09T04:06:59;17.40;99.90
34891;DHT22;21103;51.358;12.412;2022-07-09T04:09:25;17.40;99.90
34891;DHT22;21103;51.358;12.412;2022-07-09T04:11:50;17.50;99.90
34891;DHT22;21103;51.358;12.412;2022-07-09T04:14:16;17.50;99.90
34891;DHT22;21103;51.358;12.412;2022-07-09T04:16:45;17.50;99.90
34891;DHT22;21103;51.358;12.412;2022-07-09T04:19:10;17.60;99.90
34891;DHT22;21103;51.358;12.412;2022-07-09T04:21:36;17.60;99.90
34891;DHT22;21103;51.358;12.412;2022-07-09T04:24:01;17.60;99.90
34891;DHT22;21103;51.358;12.412;2022-07-09T04:26:27;17.60;99.90
34891;DHT22;21103;51.358;12.412;2022-07-09T04:28:52;17.60;99.90
34891;DHT22;21103;51.358;12.412;2022-07-09T04:31:18;17.70;99.90
34891;DHT22;21103;51.358;12.412;2022-07-09T04:33:44;17.80;99.90
34891;DHT22;21103;51.358;12.412;2022-07-09T04:36:10;17.80;99.90
34891;DHT22;21103;51.358;12.412;2022-07-09T04:38:36;17.90;99.90
34891;DHT22;21103;51.358;12.412;2022-07-09T04:41:02;18.00;99.90
34891;DHT22;21103;51.358;12.412;2022-07-09T04:43:27;18.10;99.90
34891;DHT22;21103;51.358;12.412;2022-07-09T04:45:53;18.20;99.80
34891;DHT22;21103;51.358;12.412;2022-07-09T04:48:18;18.20;99.60
34891;DHT22;21103;51.358;12.412;2022-07-09T04:50:44;18.30;99.70
34891;DHT22;21103;51.358;12.412;2022-07-09T04:53:09;18.30;99.50
34891;DHT22;21103;51.358;12.412;2022-07-09T04:55:35;18.20;99.50
34891;DHT22;21103;51.358;12.412;2022-07-09T04:58:00;18.30;99.50
34891;DHT22;21103;51.358;12.412;2022-07-09T05:00:26;18.20;99.50
34891;DHT22;21103;51.358;12.412;2022-07-09T05:02:51;18.10;99.70
34891;DHT22;21103;51.358;12.412;2022-07-09T05:05:17;18.10;99.90
34891;DHT22;21103;51.358;12.412;2022-07-09T05:07:47;18.00;99.90
34891;DHT22;21103;51.358;12.412;2022-07-09T05:10:13;17.90;99.90
34891;DHT22;21103;51.358;12.412;2022-07-09T05:12:38;18.00;99.90
34891;DHT22;21103;51.358;12.412;2022-07-09T05:15:05;18.00;99.90
34891;DHT22;21103;51.358;12.412;2022-07-09T05:17:35;18.00;99.90
34891;DHT22;21103;51.358;12.412;2022-07-09T05:20:02;18.00;99.90
34891;DHT22;21103;51.358;12.412;2022-07-09T05:22:30;18.10;99.90
34891;DHT22;21103;51.358;12.412;2022-07-09T05:24:56;18.10;99.90
34891;DHT22;21103;51.358;12.412;2022-07-09T05:27:21;18.20;99.80
34891;DHT22;21103;51.358;12.412;2022-07-09T05:29:46;18.20;99.60
34891;DHT22;21103;51.358;12.412;2022-07-09T05:32:12;18.10;99.90
34891;DHT22;21103;51.358;12.412;2022-07-09T05:34:37;18.10;99.90
34891;DHT22;21103;51.358;12.412;2022-07-09T05:37:03;18.20;99.70
34891;DHT22;21103;51.358;12.412;2022-07-09T05:39:29;18.20;99.50
34891;DHT22;21103;51.358;12.412;2022-07-09T05:41:54;18.20;99.60
34891;DHT22;21103;51.358;12.412;2022-07-09T05:44:19;18.20;99.60
34891;DHT22;21103;51.358;12.412;2022-07-09T05:46:45;18.20;99.70
34891;DHT22;21103;51.358;12.412;2022-07-09T05:49:10;18.30;99.60
34891;DHT22;21103;51.358;12.412;2022-07-09T05:51:36;18.40;99.30
34891;DHT22;21103;51.358;12.412;2022-07-09T05:54:02;18.50;99.20
34891;DHT22;21103;51.358;12.412;2022-07-09T05:56:27;18.50;99.00
34891;DHT22;21103;51.358;12.412;2022-07-09T05:58:52;18.50;99.00
34891;DHT22;21103;51.358;12.412;2022-07-09T06:01:18;18.50;99.00
34891;DHT22;21103;51.358;12.412;2022-07-09T06:03:44;18.50;98.80
34891;DHT22;21103;51.358;12.412;2022-07-09T06:06:09;18.60;98.60
34891;DHT22;21103;51.358;12.412;2022-07-09T06:08:36;18.60;98.40
34891;DHT22;21103;51.358;12.412;2022-07-09T06:11:02;18.60;98.30
34891;DHT22;21103;51.358;12.412;2022-07-09T06:13:28;18.60;98.40
34891;DHT22;21103;51.358;12.412;2022-07-09T06:15:53;18.70;98.20
34891;DHT22;21103;51.358;12.412;2022-07-09T06:18:19;18.60;98.10
34891;DHT22;21103;51.358;12.412;2022-07-09T06:20:45;18.60;98.00
34891;DHT22;21103;51.358;12.412;2022-07-09T06:23:10;18.50;98.10
34891;DHT22;21103;51.358;12.412;2022-07-09T06:25:37;18.40;98.30
34891;DHT22;21103;51.358;12.412;2022-07-09T06:28:03;18.40;98.20
34891;DHT22;21103;51.358;12.412;2022-07-09T06:30:29;18.40;98.30
34891;DHT22;21103;51.358;12.412;2022-07-09T06:32:54;18.40;98.60
34891;DHT22;21103;51.358;12.412;2022-07-09T06:35:20;18.40;98.50
34891;DHT22;21103;51.358;12.412;2022-07-09T06:37:46;18.40;98.40
34891;DHT22;21103;51.358;12.412;2022-07-09T06:40:11;18.40;98.40
34891;DHT22;21103;51.358;12.412;2022-07-09T06:42:38;18.60;98.50
34891;DHT22;21103;51.358;12.412;2022-07-09T06:45:04;18.60;98.00
34891;DHT22;21103;51.358;12.412;2022-07-09T06:47:29;18.70;98.10
34891;DHT22;21103;51.358;12.412;2022-07-09T06:49:55;18.80;97.70
34891;DHT22;21103;51.358;12.412;2022-07-09T06:52:20;18.80;97.40
34891;DHT22;21103;51.358;12.412;2022-07-09T06:54:46;18.70;97.40
34891;DHT22;21103;51.358;12.412;2022-07-09T06:57:11;18.70;97.60
34891;DHT22;21103;51.358;12.412;2022-07-09T06:59:39;18.80;98.10
34891;DHT22;21103;51.358;12.412;2022-07-09T07:02:04;19.00;97.60
34891;DHT22;21103;51.358;12.412;2022-07-09T07:04:30;19.00;97.10
34891;DHT22;21103;51.358;12.412;2022-07-09T07:06:55;19.00;97.10
34891;DHT22;21103;51.358;12.412;2022-07-09T07:09:21;19.10;96.90
34891;DHT22;21103;51.358;12.412;2022-07-09T07:11:48;19.10;97.10
34891;DHT22;21103;51.358;12.412;2022-07-09T07:14:14;19.20;96.90
34891;DHT22;21103;51.358;12.412;2022-07-09T07:16:41;19.30;96.80
34891;DHT22;21103;51.358;12.412;2022-07-09T07:19:06;19.40;96.60
34891;DHT22;21103;51.358;12.412;2022-07-09T07:21:32;19.50;96.50
34891;DHT22;21103;51.358;12.412;2022-07-09T07:23:57;19.60;96.10
34891;DHT22;21103;51.358;12.412;2022-07-09T07:26:23;19.70;96.10
34891;DHT22;21103;51.358;12.412;2022-07-09T07:28:48;19.80;96.20
34891;DHT22;21103;51.358;12.412;2022-07-09T07:31:14;19.70;96.00
34891;DHT22;21103;51.358;12.412;2022-07-09T07:33:40;19.70;95.80
34891;DHT22;21103;51.358;12.412;2022-07-09T07:36:06;19.60;96.00
34891;DHT22;21103;51.358;12.412;2022-07-09T07:38:33;19.60;95.70
34891;DHT22;21103;51.358;12.412;2022-07-09T07:40:58;19.60;95.90
34891;DHT22;21103;51.358;12.412;2022-07-09T07:43:24;19.50;95.90
34891;DHT22;21103;51.358;12.412;2022-07-09T07:45:49;19.40;96.00
34891;DHT22;21103;51.358;12.412;2022-07-09T07:48:15;19.40;96.10
34891;DHT22;21103;51.358;12.412;2022-07-09T07:50:40;19.40;96.20
34891;DHT22;21103;51.358;12.412;2022-07-09T07:53:06;19.40;96.00
34891;DHT22;21103;51.358;12.412;2022-07-09T07:55:32;19.50;96.20
34891;DHT22;21103;51.358;12.412;2022-07-09T07:57:57;19.50;96.00
34891;DHT22;21103;51.358;12.412;2022-07-09T08:00:23;19.70;96.10
34891;DHT22;21103;51.358;12.412;2022-07-09T08:02:48;19.80;95.60
34891;DHT22;21103;51.358;12.412;2022-07-09T08:05:14;19.90;95.30
34891;DHT22;21103;51.358;12.412;2022-07-09T08:07:39;19.90;95.40
34891;DHT22;21103;51.358;12.412;2022-07-09T08:10:05;20.10;95.50
34891;DHT22;21103;51.358;12.412;2022-07-09T08:12:31;20.20;95.30
34891;DHT22;21103;51.358;12.412;2022-07-09T08:14:56;20.20;95.20
34891;DHT22;21103;51.358;12.412;2022-07-09T08:17:22;20.20;95.20
34891;DHT22;21103;51.358;12.412;2022-07-09T08:19:47;20.40;94.60
34891;DHT22;21103;51.358;12.412;2022-07-09T08:22:13;20.40;94.70
34891;DHT22;21103;51.358;12.412;2022-07-09T08:24:38;20.50;94.50
34891;DHT22;21103;51.358;12.412;2022-07-09T08:27:04;20.60;94.60
34891;DHT22;21103;51.358;12.412;2022-07-09T08:29:29;20.60;94.20
34891;DHT22;21103;51.358;12.412;2022-07-09T08:31:55;20.50;94.10
34891;DHT22;21103;51.358;12.412;2022-07-09T08:34:20;20.40;94.40
34891;DHT22;21103;51.358;12.412;2022-07-09T08:36:46;20.30;94.40
34891;DHT22;21103;51.358;12.412;2022-07-09T08:39:11;20.30;94.40
34891;DHT22;21103;51.358;12.412;2022-07-09T08:41:37;20.20;94.00
34891;DHT22;21103;51.358;12.412;2022-07-09T08:44:04;20.10;94.20
34891;DHT22;21103;51.358;12.412;2022-07-09T08:46:31;20.20;94.60
34891;DHT22;21103;51.358;12.412;2022-07-09T08:48:57;20.10;94.40
34891;DHT22;21103;51.358;12.412;2022-07-09T08:51:24;20.10;94.40
34891;DHT22;21103;51.358;12.412;2022-07-09T08:53:49;20.20;94.40
34891;DHT22;21103;51.358;12.412;2022-07-09T08:56:15;20.10;94.40
34891;DHT22;21103;51.358;12.412;2022-07-09T08:58:41;20.10;94.70
34891;DHT22;21103;51.358;12.412;2022-07-09T09:01:06;20.20;94.60
34891;DHT22;21103;51.358;12.412;2022-07-09T09:03:33;20.20;94.70
34891;DHT22;21103;51.358;12.412;2022-07-09T09:06:04;20.30;94.50
34891;DHT22;21103;51.358;12.412;2022-07-09T09:08:34;20.40;94.80
34891;DHT22;21103;51.358;12.412;2022-07-09T09:11:00;20.50;94.80
34891;DHT22;21103;51.358;12.412;2022-07-09T09:13:26;20.70;94.00
34891;DHT22;21103;51.358;12.412;2022-07-09T09:16:02;20.80;93.90
34891;DHT22;21103;51.358;12.412;2022-07-09T09:18:28;21.00;93.80
34891;DHT22;21103;51.358;12.412;2022-07-09T09:20:54;21.10;93.60
34891;DHT22;21103;51.358;12.412;2022-07-09T09:23:19;21.20;93.10
34891;DHT22;21103;51.358;12.412;2022-07-09T09:25:45;21.20;93.10
34891;DHT22;21103;51.358;12.412;2022-07-09T09:28:11;21.30;93.60
34891;DHT22;21103;51.358;12.412;2022-07-09T09:30:43;21.30;93.10
34891;DHT22;21103;51.358;12.412;2022-07-09T09:33:08;21.40;93.80
34891;DHT22;21103;51.358;12.412;2022-07-09T09:35:35;21.60;93.10
34891;DHT22;21103;51.358;12.412;2022-07-09T09:38:06;21.60;92.90
34891;DHT22;21103;51.358;12.412;2022-07-09T09:40:32;21.80;92.50
34891;DHT22;21103;51.358;12.412;2022-07-09T09:42:59;21.90;92.50
34891;DHT22;21103;51.358;12.412;2022-07-09T09:45:27;22.00;93.00
34891;DHT22;21103;51.358;12.412;2022-07-09T09:47:53;22.10;92.00
34891;DHT22;21103;51.358;12.412;2022-07-09T09:50:21;22.30;91.50
34891;DHT22;21103;51.358;12.412;2022-07-09T09:52:48;22.30;91.70
34891;DHT22;21103;51.358;12.412;2022-07-09T09:55:14;22.30;91.50
34891;DHT22;21103;51.358;12.412;2022-07-09T09:57:41;22.20;91.40
34891;DHT22;21103;51.358;12.412;2022-07-09T10:00:07;22.20;91.60
34891;DHT22;21103;51.358;12.412;2022-07-09T10:02:34;22.40;91.80
34891;DHT22;21103;51.358;12.412;2022-07-09T10:05:01;22.50;91.40
34891;DHT22;21103;51.358;12.412;2022-07-09T10:07:26;22.60;91.40
34891;DHT22;21103;51.358;12.412;2022-07-09T10:09:53;22.90;91.30
34891;DHT22;21103;51.358;12.412;2022-07-09T10:12:27;23.10;90.80
34891;DHT22;21103;51.358;12.412;2022-07-09T10:14:53;23.20;91.10
34891;DHT22;21103;51.358;12.412;2022-07-09T10:17:19;23.30;90.90
34891;DHT22;21103;51.358;12.412;2022-07-09T10:19:55;23.30;90.20
34891;DHT22;21103;51.358;12.412;2022-07-09T10:22:33;23.30;90.50
34891;DHT22;21103;51.358;12.412;2022-07-09T10:24:59;23.30;90.10
34891;DHT22;21103;51.358;12.412;2022-07-09T10:27:25;23.20;90.60
34891;DHT22;21103;51.358;12.412;2022-07-09T10:29:56;23.30;89.90
34891;DHT22;21103;51.358;12.412;2022-07-09T10:32:40;23.40;89.80
34891;DHT22;21103;51.358;12.412;2022-07-09T10:35:07;23.40;89.40
34891;DHT22;21103;51.358;12.412;2022-07-09T10:37:41;23.50;90.00
34891;DHT22;21103;51.358;12.412;2022-07-09T10:40:15;23.60;90.00
34891;DHT22;21103;51.358;12.412;2022-07-09T10:42:45;23.50;89.40
34891;DHT22;21103;51.358;12.412;2022-07-09T10:45:25;23.40;89.30
34891;DHT22;21103;51.358;12.412;2022-07-09T10:47:54;23.30;89.60
34891;DHT22;21103;51.358;12.412;2022-07-09T10:50:19;23.30;88.90
34891;DHT22;21103;51.358;12.412;2022-07-09T10:52:46;23.20;89.90
34891;DHT22;21103;51.358;12.412;2022-07-09T10:55:11;23.10;89.70
34891;DHT22;21103;51.358;12.412;2022-07-09T10:57:37;22.90;90.00
34891;DHT22;21103;51.358;12.412;2022-07-09T11:00:03;22.80;90.50
34891;DHT22;21103;51.358;12.412;2022-07-09T11:02:29;22.80;90.60
34891;DHT22;21103;51.358;12.412;2022-07-09T11:04:54;22.60;90.40
34891;DHT22;21103;51.358;12.412;2022-07-09T11:07:24;22.50;90.70
34891;DHT22;21103;51.358;12.412;2022-07-09T11:09:51;22.40;90.70
34891;DHT22;21103;51.358;12.412;2022-07-09T11:12:18;22.30;90.70
34891;DHT22;21103;51.358;12.412;2022-07-09T11:14:45;22.20;91.40
34891;DHT22;21103;51.358;12.412;2022-07-09T11:17:14;22.20;91.10
34891;DHT22;21103;51.358;12.412;2022-07-09T11:19:40;22.30;91.10
34891;DHT22;21103;51.358;12.412;2022-07-09T11:22:05;22.40;90.90
34891;DHT22;21103;51.358;12.412;2022-07-09T11:24:31;22.40;90.90
34891;DHT22;21103;51.358;12.412;2022-07-09T11:27:01;22.60;90.60
34891;DHT22;21103;51.358;12.412;2022-07-09T11:29:27;22.70;90.30
34891;DHT22;21103;51.358;12.412;2022-07-09T11:31:53;22.80;90.00
34891;DHT22;21103;51.358;12.412;2022-07-09T11:34:20;22.80;90.20
34891;DHT22;21103;51.358;12.412;2022-07-09T11:36:47;22.80;90.00
34891;DHT22;21103;51.358;12.412;2022-07-09T11:39:29;22.80;90.50
34891;DHT22;21103;51.358;12.412;2022-07-09T11:41:58;22.80;89.90
34891;DHT22;21103;51.358;12.412;2022-07-09T11:44:30;22.80;89.50
34891;DHT22;21103;51.358;12.412;2022-07-09T11:47:11;22.70;90.10
34891;DHT22;21103;51.358;12.412;2022-07-09T11:49:42;22.70;90.10
34891;DHT22;21103;51.358;12.412;2022-07-09T11:52:22;22.80;90.10
34891;DHT22;21103;51.358;12.412;2022-07-09T11:54:55;22.80;90.00
34891;DHT22;21103;51.358;12.412;2022-07-09T11:57:21;22.80;89.40
34891;DHT22;21103;51.358;12.412;2022-07-09T11:59:47;22.80;90.00
34891;DHT22;21103;51.358;12.412;2022-07-09T12:02:25;22.90;90.60
34891;DHT22;21103;51.358;12.412;2022-07-09T12:04:51;22.90;90.90
34891;DHT22;21103;51.358;12.412;2022-07-09T12:07:17;23.00;91.10
34891;DHT22;21103;51.358;12.412;2022-07-09T12:09:42;23.10;91.00
34891;DHT22;21103;51.358;12.412;2022-07-09T12:12:08;23.10;90.60
34891;DHT22;21103;51.358;12.412;2022-07-09T12:14:33;23.00;90.70
34891;DHT22;21103;51.358;12.412;2022-07-09T12:16:59;23.00;91.00
34891;DHT22;21103;51.358;12.412;2022-07-09T12:19:24;23.00;91.20
34891;DHT22;21103;51.358;12.412;2022-07-09T12:21:50;22.90;91.30
34891;DHT22;21103;51.358;12.412;2022-07-09T12:24:16;23.00;91.60
34891;DHT22;21103;51.358;12.412;2022-07-09T12:26:41;23.10;91.30
34891;DHT22;21103;51.358;12.412;2022-07-09T12:29:07;23.20;91.50
34891;DHT22;21103;51.358;12.412;2022-07-09T12:31:33;23.30;91.40
34891;DHT22;21103;51.358;12.412;2022-07-09T12:34:02;23.40;91.40
34891;DHT22;21103;51.358;12.412;2022-07-09T12:36:27;23.50;91.10
34891;DHT22;21103;51.358;12.412;2022-07-09T12:38:53;23.60;90.00
34891;DHT22;21103;51.358;12.412;2022-07-09T12:41:18;23.50;90.20
34891;DHT22;21103;51.358;12.412;2022-07-09T12:43:44;23.50;90.00
34891;DHT22;21103;51.358;12.412;2022-07-09T12:46:09;23.50;90.00
34891;DHT22;21103;51.358;12.412;2022-07-09T12:48:35;23.40;89.70
34891;DHT22;21103;51.358;12.412;2022-07-09T12:51:00;23.50;89.70
34891;DHT22;21103;51.358;12.412;2022-07-09T12:53:26;23.60;89.30
34891;DHT22;21103;51.358;12.412;2022-07-09T12:55:51;23.60;88.00
34891;DHT22;21103;51.358;12.412;2022-07-09T12:58:16;23.50;87.40
34891;DHT22;21103;51.358;12.412;2022-07-09T13:00:42;23.60;87.10
34891;DHT22;21103;51.358;12.412;2022-07-09T13:03:07;23.60;87.40
34891;DHT22;21103;51.358;12.412;2022-07-09T13:05:33;23.60;86.10
34891;DHT22;21103;51.358;12.412;2022-07-09T13:07:58;23.40;86.70
34891;DHT22;21103;51.358;12.412;2022-07-09T13:10:24;23.40;87.00
34891;DHT22;21103;51.358;12.412;2022-07-09T13:12:49;23.30;87.40
34891;DHT22;21103;51.358;12.412;2022-07-09T13:15:15;23.30;87.40
34891;DHT22;21103;51.358;12.412;2022-07-09T13:17:47;23.30;87.80
34891;DHT22;21103;51.358;12.412;2022-07-09T13:20:12;23.40;87.50
34891;DHT22;21103;51.358;12.412;2022-07-09T13:22:38;23.40;88.20
34891;DHT22;21103;51.358;12.412;2022-07-09T13:25:03;23.40;88.40
34891;DHT22;21103;51.358;12.412;2022-07-09T13:27:29;23.30;88.90
34891;DHT22;21103;51.358;12.412;2022-07-09T13:29:56;23.10;91.40
34891;DHT22;21103;51.358;12.412;2022-07-09T13:32:21;22.80;92.40
34891;DHT22;21103;51.358;12.412;2022-07-09T13:34:47;22.40;93.40
34891;DHT22;21103;51.358;12.412;2022-07-09T13:37:13;22.10;94.20
34891;DHT22;21103;51.358;12.412;2022-07-09T13:39:38;21.80;93.90
34891;DHT22;21103;51.358;12.412;2022-07-09T13:42:04;21.60;94.10
34891;DHT22;21103;51.358;12.412;2022-07-09T13:44:29;21.50;94.90
34891;DHT22;21103;51.358;12.412;2022-07-09T13:46:55;21.50;94.40
34891;DHT22;21103;51.358;12.412;2022-07-09T13:49:20;21.40;94.40
34891;DHT22;21103;51.358;12.412;2022-07-09T13:51:46;21.40;94.70
34891;DHT22;21103;51.358;12.412;2022-07-09T13:54:11;21.40;95.00
34891;DHT22;21103;51.358;12.412;2022-07-09T13:56:37;21.40;95.10
34891;DHT22;21103;51.358;12.412;2022-07-09T13:59:02;21.50;95.00
34891;DHT22;21103;51.358;12.412;2022-07-09T14:01:28;21.60;95.20
34891;DHT22;21103;51.358;12.412;2022-07-09T14:03:53;21.70;94.30
34891;DHT22;21103;51.358;12.412;2022-07-09T14:06:20;21.80;94.00
34891;DHT22;21103;51.358;12.412;2022-07-09T14:08:45;21.80;94.20
34891;DHT22;21103;51.358;12.412;2022-07-09T14:11:11;22.00;94.30
34891;DHT22;21103;51.358;12.412;2022-07-09T14:13:36;22.20;94.20
34891;DHT22;21103;51.358;12.412;2022-07-09T14:16:02;22.40;94.20
34891;DHT22;21103;51.358;12.412;2022-07-09T14:18:27;22.40;93.50
34891;DHT22;21103;51.358;12.412;2022-07-09T14:20:54;22.60;94.20
34891;DHT22;21103;51.358;12.412;2022-07-09T14:23:19;22.80;93.50
34891;DHT22;21103;51.358;12.412;2022-07-09T14:25:45;22.90;92.70
34891;DHT22;21103;51.358;12.412;2022-07-09T14:28:10;23.00;92.50
34891;DHT22;21103;51.358;12.412;2022-07-09T14:30:36;23.20;91.70
34891;DHT22;21103;51.358;12.412;2022-07-09T14:33:01;23.30;91.10
34891;DHT22;21103;51.358;12.412;2022-07-09T14:35:27;23.40;91.40
34891;DHT22;21103;51.358;12.412;2022-07-09T14:37:52;23.40;91.00
34891;DHT22;21103;51.358;12.412;2022-07-09T14:40:18;23.50;91.00
34891;DHT22;21103;51.358;12.412;2022-07-09T14:42:43;23.60;90.90
34891;DHT22;21103;51.358;12.412;2022-07-09T14:45:09;23.70;90.40
34891;DHT22;21103;51.358;12.412;2022-07-09T14:47:36;23.70;90.20
34891;DHT22;21103;51.358;12.412;2022-07-09T14:50:01;23.80;90.10
34891;DHT22;21103;51.358;12.412;2022-07-09T14:52:27;23.90;90.00
34891;DHT22;21103;51.358;12.412;2022-07-09T14:54:52;23.90;89.10
34891;DHT22;21103;51.358;12.412;2022-07-09T14:57:18;24.10;88.90
34891;DHT22;21103;51.358;12.412;2022-07-09T14:59:43;24.20;88.40
34891;DHT22;21103;51.358;12.412;2022-07-09T15:02:09;24.40;86.30
34891;DHT22;21103;51.358;12.412;2022-07-09T15:04:35;24.40;86.20
34891;DHT22;21103;51.358;12.412;2022-07-09T15:07:00;24.40;84.50
34891;DHT22;21103;51.358;12.412;2022-07-09T15:09:26;24.30;86.00